Station: Tarcoola

  Atmospheric Gas Attenuation - ITU Rec 676-11   --------------- db/100km ---------------
Date Time Temp RH % AH g/m3 Dew Point Wind Direction Speed kph Gust kph Barometer mB Rainfall Since 9am 24GHz 47GHz 76GHz 122GHz 134GHz 241GHz
15 01:30 11.4 91 9.34 10 9 11 1020.9 0 21.3 28.2 44.5 116.9 112.4 387.2
15 01:20 11.1 89 8.97 9.4 9 9 1021 0 20.5 27.6 43.1 113.1 107.7 370.6
15 01:10 10.7 88 8.65 8.8 7 9 1020.9 0 19.8 27.2 42.0 110.1 103.8 356.8
15 01:00 10.3 88 8.43 8.4 7 11 1020.7 0 19.4 26.9 41.2 108.1 101.2 347.9
15 00:50 10 88 8.27 8.1 9 11 1020.7 0 19.1 26.8 40.7 106.7 99.4 341.5
15 00:40 9.7 87 8.02 7.6 11 11 1020.9 0 18.5 26.4 39.8 104.4 96.4 330.7
15 00:30 9.9 85 7.94 7.5 9 11 1020.8 0 18.4 26.2 39.4 103.2 95.0 326.0
15 00:20 10.3 85 8.14 7.9 11 11 1021.1 0 18.8 26.5 40.0 104.9 97.3 334.0
15 00:10 10.6 85 8.3 8.2 11 11 1021.2 0 19.1 26.6 40.6 106.3 99.1 340.4
15 00:00 10.8 85 8.4 8.4 9 11 1021 0 19.3 26.7 40.9 107.1 100.2 344.3
14 23:50 10.3 85 8.14 7.9 9 11 1021.3 0 18.8 26.5 40.0 104.9 97.3 334.1
14 23:40 9.7 86 7.93 7.5 9 11 1021.5 0 18.3 26.3 39.5 103.4 95.2 326.6
14 23:30 9.3 81 7.28 6.2 7 9 1021.4 0 17.0 25.3 37.0 96.8 86.8 297.2
14 23:20 9.6 81 7.42 6.5 7 7 1021.3 0 17.2 25.5 37.4 97.9 88.4 302.7
14 23:10 10 80 7.52 6.7 7 9 1021.4 0 17.4 25.5 37.6 98.5 89.3 305.9
14 23:00 10.3 80 7.66 7 6 7 1021.2 0 17.7 25.7 38.1 99.7 90.8 311.2
14 22:50 10.3 80 7.66 7 7 7 1021.2 0 17.7 25.7 38.1 99.7 90.8 311.2
14 22:40 10.3 79 7.57 6.8 9 11 1021.2 0 17.5 25.5 37.7 98.7 89.6 307.0
14 22:30 10.5 78 7.57 6.8 11 11 1021.2 0 17.5 25.5 37.6 98.4 89.3 306.2
14 22:20 10.7 77 7.56 6.8 11 11 1021.2 0 17.5 25.4 37.5 98.1 89.0 305.0
14 22:10 10.9 76 7.56 6.8 11 11 1021.2 0 17.5 25.3 37.4 97.8 88.7 304.2
14 22:00 11 76 7.61 6.9 9 11 1021 0 17.6 25.4 37.5 98.2 89.3 306.1
14 21:50 11 75 7.51 6.7 9 11 1021 0 17.4 25.2 37.1 97.1 87.9 301.4
14 21:40 11.4 74 7.6 6.9 11 11 1021 0 17.6 25.3 37.3 97.6 88.7 304.1
14 21:30 11.6 74 7.69 7.1 9 11 1020.9 0 17.7 25.3 37.6 98.3 89.6 307.4
14 21:20 11.4 73 7.49 6.7 7 9 1021.1 0 17.3 25.1 36.9 96.4 87.2 299.0
14 21:10 11.6 72 7.48 6.7 7 7 1021.1 0 17.3 25.0 36.7 96.1 86.9 297.8
14 21:00 11.8 72 7.58 6.9 11 13 1020.9 0 17.5 25.1 37.0 96.9 88.0 301.6
14 20:50 11.8 71 7.47 6.7 11 13 1021 0 17.3 24.9 36.6 95.7 86.5 296.5
14 20:40 11.9 71 7.52 6.8 9 9 1020.9 0 17.4 25.0 36.7 96.1 87.1 298.4
14 20:30 12.4 70 7.65 7.1 9 11 1020.8 0 17.6 25.0 37.0 96.9 88.2 302.5
14 20:20 12.5 68 7.48 6.8 9 9 1020.7 0 17.3 24.7 36.3 95.0 85.9 294.3
14 20:10 13 67 7.6 7 9 11 1020.7 0 17.5 24.8 36.5 95.6 86.9 297.9
14 20:00 13.2 67 7.69 7.2 9 11 1020.6 0 17.7 24.9 36.8 96.3 87.8 301.2
14 19:50 13.5 65 7.6 7.1 9 9 1020.6 0 17.5 24.7 36.3 95.0 86.3 296.0
14 19:40 13.9 63 7.55 7 9 9 1020.3 0 17.3 24.5 35.9 94.0 85.2 292.2
14 19:30 14.4 62 7.66 7.2 9 11 1020.1 0 17.6 24.5 36.1 94.5 86.0 295.2
14 19:20 14.7 60 7.55 7 9 9 1020 0 17.3 24.2 35.5 93.0 84.3 289.2
14 19:10 15.3 58 7.57 7.1 7 9 1019.8 0 17.3 24.1 35.4 92.5 83.9 287.9
14 19:00 15.9 57 7.72 7.4 7 9 1019.6 0 17.6 24.2 35.7 93.3 85.1 292.2
14 18:50 16.3 56 7.77 7.5 9 9 1019.4 0 17.7 24.1 35.7 93.3 85.3 292.9
14 18:40 16.8 54 7.72 7.4 9 11 1019.4 0 17.6 23.9 35.2 92.2 84.2 288.9
14 18:30 17.4 53 7.85 7.7 11 15 1019.2 0 17.8 23.9 35.5 92.8 85.1 292.3
14 18:20 17.8 52 7.89 7.8 11 13 1019.3 0 17.9 23.9 35.4 92.8 85.2 292.6
14 18:10 17.9 51 7.79 7.6 15 17 1019.1 0 17.7 23.7 35.0 91.7 83.8 287.9
14 18:00 18.1 50 7.72 7.5 19 24 1018.9 0 17.5 23.6 34.7 90.7 82.7 284.1
14 17:50 18.3 49 7.66 7.4 17 19 1018.9 0 17.4 23.4 34.4 89.9 81.8 280.9
14 17:40 18.5 48 7.59 7.3 15 17 1018.9 0 17.2 23.3 34.0 89.0 80.8 277.3
14 17:30 18.6 47 7.48 7.1 19 26 1018.8 0 17.0 23.1 33.6 87.8 79.3 272.3
14 17:20 18.9 46 7.45 7 19 22 1018.9 0 16.9 23.0 33.4 87.2 78.7 270.0
14 17:10 19.1 45 7.38 6.9 24 32 1018.7 0 16.8 22.8 33.0 86.3 77.7 266.4
14 17:00 19.3 44 7.3 6.8 24 35 1018.6 0 16.6 22.6 32.6 85.3 76.5 262.5
14 16:50 19.5 44 7.38 6.9 22 28 1018.6 0 16.7 22.7 32.8 85.9 77.3 265.1
14 16:40 19.8 43 7.34 6.9 26 32 1018.6 0 16.6 22.6 32.6 85.2 76.5 262.5
14 16:30 19.7 44 7.47 7.1 24 33 1018.4 0 16.9 22.8 33.1 86.5 78.1 268.1
14 16:20 19.9 44 7.56 7.3 20 24 1018.5 0 17.1 22.9 33.3 87.2 79.0 271.2
14 16:10 19.7 45 7.64 7.4 30 35 1018.5 0 17.3 23.0 33.7 88.1 80.1 275.2
14 16:00 19 46 7.5 7.1 26 35 1018.4 0 17.0 23.0 33.5 87.5 79.2 271.7
14 15:50 19.8 43 7.34 6.9 28 32 1018.4 0 16.6 22.6 32.6 85.2 76.5 262.4
14 15:40 20.1 43 7.47 7.1 26 32 1018.5 0 16.9 22.7 32.9 86.1 77.7 266.8
14 15:30 20.2 43 7.52 7.2 26 37 1018.3 0 17.0 22.7 33.1 86.4 78.2 268.5
14 15:20 20 43 7.43 7.1 20 26 1018.5 0 16.8 22.6 32.8 85.8 77.4 265.5
14 15:10 20.2 43 7.52 7.2 24 33 1018.5 0 17.0 22.7 33.1 86.5 78.2 268.5
14 15:00 20.1 43 7.47 7.1 24 33 1018.4 0 16.9 22.7 32.9 86.1 77.7 266.8
14 14:50 19.6 43 7.26 6.7 24 30 1018.5 0 16.5 22.5 32.4 84.6 75.8 259.8
14 14:40 18.6 49 7.8 7.7 24 32 1018.5 0 17.7 23.5 34.7 90.9 83.2 285.7
14 14:30 19.8 46 7.86 7.9 20 32 1018.3 0 17.7 23.3 34.4 90.1 82.6 283.9
14 14:20 19.8 46 7.86 7.9 28 30 1018.4 0 17.7 23.3 34.4 90.1 82.6 283.9
14 14:10 19.6 47 7.93 8 24 32 1018.6 0 17.9 23.5 34.8 91.1 83.7 287.6
14 14:00 19.4 47 7.84 7.8 26 35 1018.6 0 17.7 23.4 34.5 90.4 82.8 284.5
14 13:50 19.3 48 7.96 8 22 26 1018.6 0 18.0 23.6 35.0 91.7 84.4 289.9
14 13:40 19.2 48 7.91 7.9 26 32 1018.7 0 17.9 23.5 34.9 91.3 83.9 288.2
14 13:30 19.1 49 8.03 8.1 26 32 1018.7 0 18.1 23.8 35.4 92.6 85.4 293.7
14 13:20 19.1 50 8.2 8.4 30 37 1018.8 0 18.5 24.0 36.0 94.3 87.5 300.9
14 13:10 19.2 52 8.57 9.1 20 26 1019 0 19.3 24.5 37.3 97.9 91.9 316.4
14 13:00 19 50 8.15 8.4 24 33 1019 0 18.4 24.0 35.9 93.9 87.0 299.2
14 12:50 19.2 53 8.74 9.4 22 30 1019.2 0 19.6 24.8 38.0 99.6 94.0 323.8
14 12:40 18.4 53 8.34 8.7 28 32 1019.4 0 18.8 24.4 36.9 96.6 90.0 309.7
14 12:30 18.4 56 8.81 9.5 22 32 1019.4 0 19.8 25.1 38.6 101.3 95.9 330.2
14 12:20 18.5 55 8.7 9.3 22 30 1019.5 0 19.6 25.0 38.2 100.1 94.4 325.0
14 12:10 18 57 8.75 9.4 22 26 1019.7 0 19.7 25.2 38.6 101.2 95.6 329.3
14 12:00 17.6 59 8.85 9.5 20 30 1019.8 0 19.9 25.4 39.2 102.8 97.4 335.4
14 11:50 17.9 59 9.01 9.8 17 20 1020 0 20.3 25.6 39.7 104.1 99.1 341.3
14 11:40 17.6 60 9 9.8 19 20 1020 0 20.2 25.7 39.8 104.4 99.3 342.2
14 11:30 17.7 60 9.05 9.8 22 30 1020 0 20.3 25.7 39.9 104.7 99.8 344.0
14 11:20 17.7 61 9.2 10.1 17 20 1020.1 0 20.7 26.0 40.5 106.3 101.8 350.7
14 11:10 17.5 61 9.09 9.9 24 30 1020.3 0 20.4 25.9 40.2 105.5 100.6 346.7
14 11:00 16.8 63 9.01 9.7 24 26 1020.4 0 20.3 25.9 40.2 105.6 100.5 346.2
14 10:50 16.6 64 9.04 9.8 26 32 1020.5 0 20.4 26.1 40.5 106.2 101.2 348.5
14 10:40 16.2 68 9.38 10.3 19 22 1020.6 0 21.1 26.7 42.0 110.3 106.2 365.9
14 10:30 15.9 70 9.48 10.4 22 28 1020.6 0 21.4 27.0 42.6 111.8 107.9 371.9
14 10:20 15.8 70 9.42 10.3 24 28 1020.6 0 21.2 26.9 42.4 111.3 107.2 369.6
14 10:10 15.8 72 9.69 10.8 22 24 1020.6 0 21.8 27.4 43.5 114.2 110.8 382.2
14 10:00 15.6 72 9.57 10.6 19 26 1020.4 0 21.6 27.2 43.1 113.2 109.5 377.5
14 09:50 15.3 75 9.79 10.9 20 22 1020.3 0 22.0 27.7 44.2 116.0 112.9 389.3
14 09:40 15 76 9.75 10.8 20 24 1020.2 0 22.0 27.7 44.2 116.0 112.8 388.9
14 09:30 14.7 78 9.82 10.9 26 30 1020.3 0 22.1 27.9 44.6 117.3 114.2 393.8
14 09:20 14.6 80 10.01 11.2 24 28 1020.1 0 22.6 28.2 45.5 119.5 116.9 403.3
14 09:10 14.2 83 10.14 11.4 22 28 1020.3 0 22.9 28.6 46.3 121.6 119.4 411.8
14 09:00 14.1 83 10.07 11.3 20 32 1020.1 0 22.7 28.5 46.0 121.0 118.5 408.9

Last Refresh: 15-Jun-2024 01:40:21

Bureau of Meteorology